createdAt,value
2022-11-21T00:00:22.686Z,10.63
2022-11-21T00:02:49.599Z,10.88
2022-11-21T00:05:16.285Z,10.50
2022-11-21T00:07:43.514Z,9.88
2022-11-21T00:10:10.071Z,11.00
2022-11-21T00:12:36.518Z,10.35
2022-11-21T00:15:03.015Z,10.38
2022-11-21T00:17:29.393Z,11.10
2022-11-21T00:19:55.829Z,10.63
2022-11-21T00:22:22.222Z,11.40
2022-11-21T00:24:52.994Z,11.00
2022-11-21T00:27:20.685Z,11.05
2022-11-21T00:29:47.128Z,10.77
2022-11-21T00:32:13.567Z,10.80
2022-11-21T00:34:39.961Z,11.10
2022-11-21T00:37:06.463Z,10.73
2022-11-21T00:39:33.037Z,11.35
2022-11-21T00:41:59.413Z,11.10
2022-11-21T00:44:26.082Z,10.98
2022-11-21T00:46:52.868Z,10.88
2022-11-21T00:49:19.308Z,11.05
2022-11-21T00:51:45.796Z,11.50
2022-11-21T00:54:12.247Z,11.05
2022-11-21T00:56:38.677Z,11.15
2022-11-21T00:59:05.112Z,11.27
2022-11-21T01:01:31.492Z,12.45
2022-11-21T01:03:58.455Z,10.95
2022-11-21T01:06:25.027Z,11.13
2022-11-21T01:08:51.645Z,10.70
2022-11-21T01:11:19.471Z,11.10
2022-11-21T01:13:46.203Z,11.20
2022-11-21T01:16:17.953Z,10.38
2022-11-21T01:18:44.698Z,11.25
2022-11-21T01:21:14.198Z,10.93
2022-11-21T01:23:41.135Z,10.52
2022-11-21T01:26:09.708Z,10.82
2022-11-21T01:28:36.404Z,10.43
2022-11-21T01:31:04.029Z,10.48
2022-11-21T01:33:30.795Z,10.70
2022-11-21T01:35:57.407Z,10.50
2022-11-21T01:38:23.762Z,9.98
2022-11-21T01:40:50.186Z,10.20
2022-11-21T01:43:16.618Z,10.60
2022-11-21T01:45:51.895Z,10.10
2022-11-21T01:48:18.716Z,9.98
2022-11-21T01:50:45.624Z,10.00
2022-11-21T01:53:12.047Z,10.80
2022-11-21T01:55:38.541Z,10.45
2022-11-21T01:58:06.081Z,9.40
2022-11-21T02:00:35.756Z,9.73
2022-11-21T02:03:04.428Z,9.77
2022-11-21T02:05:33.188Z,9.63
2022-11-21T02:08:03.840Z,9.80
2022-11-21T02:10:30.275Z,10.52
2022-11-21T02:12:57.892Z,10.02
2022-11-21T02:15:25.555Z,9.52
2022-11-21T02:17:52.305Z,9.13
2022-11-21T02:20:19.893Z,8.82
2022-11-21T02:22:46.288Z,9.45
2022-11-21T02:25:14.950Z,9.88
2022-11-21T02:27:41.568Z,9.00
2022-11-21T02:30:09.094Z,9.40
2022-11-21T02:32:40.237Z,9.32
2022-11-21T02:35:07.046Z,9.15
2022-11-21T02:37:34.149Z,8.98
2022-11-21T02:40:01.805Z,8.80
2022-11-21T02:42:45.289Z,8.93
2022-11-21T02:45:16.031Z,8.38
2022-11-21T02:47:43.027Z,8.68
2022-11-21T02:50:09.510Z,8.80
2022-11-21T02:52:35.909Z,8.15
2022-11-21T02:55:02.330Z,7.90
2022-11-21T02:57:28.725Z,8.43
2022-11-21T02:59:55.164Z,7.97
2022-11-21T03:02:21.746Z,8.55
2022-11-21T03:04:48.157Z,8.38
2022-11-21T03:07:14.881Z,8.32
2022-11-21T03:09:41.364Z,7.35
2022-11-21T03:12:08.455Z,8.25
2022-11-21T03:14:35.245Z,7.70
2022-11-21T03:17:01.755Z,8.05
2022-11-21T03:19:28.252Z,7.95
2022-11-21T03:21:54.688Z,8.43
2022-11-21T03:24:21.160Z,7.70
2022-11-21T03:26:47.552Z,7.78
2022-11-21T03:29:14.038Z,7.68
2022-11-21T03:31:40.579Z,8.57
2022-11-21T03:34:07.283Z,7.95
2022-11-21T03:36:33.840Z,8.00
2022-11-21T03:39:00.264Z,7.28
2022-11-21T03:41:30.068Z,8.00
2022-11-21T03:44:01.236Z,7.95
2022-11-21T03:46:28.343Z,7.95
2022-11-21T03:48:54.921Z,8.00
2022-11-21T03:51:21.659Z,8.18
2022-11-21T03:53:48.083Z,7.40
2022-11-21T03:56:14.519Z,7.65
2022-11-21T03:58:41.001Z,7.70
2022-11-21T04:01:08.676Z,7.75
2022-11-21T04:03:35.252Z,8.07
2022-11-21T04:06:02.083Z,7.38
2022-11-21T04:08:28.540Z,8.05
2022-11-21T04:10:55.041Z,7.72
2022-11-21T04:13:21.586Z,7.70
2022-11-21T04:15:48.348Z,6.90
2022-11-21T04:18:14.774Z,7.15
2022-11-21T04:20:41.228Z,7.57
2022-11-21T04:23:07.761Z,7.72
2022-11-21T04:25:34.184Z,7.18
2022-11-21T04:28:01.365Z,8.10
2022-11-21T04:30:28.570Z,7.25
2022-11-21T04:32:55.353Z,7.20
2022-11-21T04:35:22.322Z,6.65
2022-11-21T04:37:48.742Z,6.70
2022-11-21T04:40:15.463Z,7.03
2022-11-21T04:42:45.336Z,7.57
2022-11-21T04:45:12.373Z,7.57
2022-11-21T04:47:42.888Z,7.07
2022-11-21T04:50:10.187Z,7.28
2022-11-21T04:52:36.615Z,7.53
2022-11-21T04:55:03.430Z,7.10
2022-11-21T04:57:30.300Z,6.68
2022-11-21T04:59:57.058Z,6.85
2022-11-21T05:02:23.477Z,6.88
2022-11-21T05:04:50.110Z,7.13
2022-11-21T05:07:16.984Z,7.28
2022-11-21T05:09:43.573Z,6.90
2022-11-21T05:12:29.326Z,6.28
2022-11-21T05:14:56.203Z,7.13
2022-11-21T05:17:22.961Z,7.13
2022-11-21T05:19:49.357Z,6.70
2022-11-21T05:22:15.760Z,7.38
2022-11-21T05:24:42.171Z,6.43
2022-11-21T05:27:08.608Z,6.63
2022-11-21T05:29:36.018Z,6.90
2022-11-21T05:32:02.434Z,6.30
2022-11-21T05:34:29.177Z,6.78
2022-11-21T05:36:59.041Z,6.30
2022-11-21T05:39:25.754Z,6.72
2022-11-21T05:41:52.166Z,6.10
2022-11-21T05:44:18.994Z,6.40
2022-11-21T05:46:45.408Z,6.60
2022-11-21T05:49:12.122Z,5.57
2022-11-21T05:51:38.998Z,6.70
2022-11-21T05:54:05.586Z,7.03
2022-11-21T05:56:32.046Z,6.35
2022-11-21T05:58:59.045Z,6.28
2022-11-21T06:01:43.872Z,6.00
2022-11-21T06:04:10.458Z,6.25
2022-11-21T06:06:37.165Z,6.63
2022-11-21T06:09:04.517Z,6.50
2022-11-21T06:11:30.922Z,6.50
2022-11-21T06:13:57.322Z,6.25
2022-11-21T06:16:23.751Z,5.93
2022-11-21T06:18:56.833Z,5.78
2022-11-21T06:21:26.139Z,6.00
2022-11-21T06:23:53.473Z,6.72
2022-11-21T06:26:21.086Z,6.70
2022-11-21T06:28:47.979Z,6.00
2022-11-21T06:31:18.896Z,6.20
2022-11-21T06:33:45.591Z,6.68
2022-11-21T06:36:13.631Z,6.38
2022-11-21T06:38:40.265Z,6.05
2022-11-21T06:41:07.475Z,5.97
2022-11-21T06:43:34.130Z,6.20
2022-11-21T06:46:03.272Z,6.25
2022-11-21T06:48:30.366Z,6.13
2022-11-21T06:50:56.826Z,7.05
2022-11-21T06:53:23.253Z,6.43
2022-11-21T06:55:49.872Z,6.45
2022-11-21T06:58:16.567Z,5.95
2022-11-21T07:00:44.419Z,6.38
2022-11-21T07:03:10.882Z,5.88
2022-11-21T07:05:37.411Z,5.82
2022-11-21T07:08:06.010Z,6.43
2022-11-21T07:10:35.894Z,6.57
2022-11-21T07:13:21.054Z,6.22
2022-11-21T07:15:48.334Z,5.78
2022-11-21T07:18:14.787Z,6.32
2022-11-21T07:20:41.357Z,5.95
2022-11-21T07:23:08.505Z,6.00
2022-11-21T07:25:36.751Z,5.75
2022-11-21T07:28:03.906Z,5.75
2022-11-21T07:30:30.569Z,5.72
2022-11-21T07:33:01.031Z,6.20
2022-11-21T07:35:27.818Z,5.65
2022-11-21T07:37:54.501Z,6.45
2022-11-21T07:40:21.203Z,6.47
2022-11-21T07:42:47.970Z,5.38
2022-11-21T07:45:14.999Z,5.97
2022-11-21T07:47:41.899Z,6.18
2022-11-21T07:50:08.989Z,6.00
2022-11-21T07:52:35.520Z,6.10
2022-11-21T07:55:05.739Z,5.93
2022-11-21T07:57:32.627Z,6.50
2022-11-21T07:59:59.018Z,5.88
2022-11-21T08:02:26.457Z,5.88
2022-11-21T08:04:52.897Z,6.28
2022-11-21T08:07:20.883Z,6.90
2022-11-21T08:09:47.454Z,6.05
2022-11-21T08:12:13.906Z,6.10
2022-11-21T08:14:40.547Z,6.60
2022-11-21T08:17:07.264Z,6.22
2022-11-21T08:19:34.163Z,6.95
2022-11-21T08:22:00.624Z,6.60
2022-11-21T08:24:27.350Z,6.85
2022-11-21T08:26:53.935Z,5.93
2022-11-21T08:29:20.326Z,6.50
2022-11-21T08:31:46.786Z,6.20
2022-11-21T08:34:14.736Z,5.80
2022-11-21T08:36:41.290Z,6.10
2022-11-21T08:39:07.684Z,5.72
2022-11-21T08:41:52.638Z,6.13
2022-11-21T08:44:19.048Z,6.25
2022-11-21T08:46:45.465Z,6.45
2022-11-21T08:49:11.931Z,6.28
2022-11-21T08:51:38.313Z,5.82
2022-11-21T08:54:04.732Z,6.63
2022-11-21T08:56:31.247Z,6.38
2022-11-21T08:58:57.724Z,5.82
2022-11-21T09:01:24.150Z,5.80
2022-11-21T09:03:50.609Z,5.40
2022-11-21T09:06:17.034Z,5.43
2022-11-21T09:08:43.428Z,5.60
2022-11-21T09:11:10.121Z,5.97
2022-11-21T09:13:36.783Z,6.03
2022-11-21T09:16:22.144Z,4.97
2022-11-21T09:18:51.438Z,5.45
2022-11-21T09:21:18.699Z,5.65
2022-11-21T09:23:45.152Z,5.47
2022-11-21T09:26:12.416Z,5.53
2022-11-21T09:28:39.192Z,5.70
2022-11-21T09:31:05.739Z,5.88
2022-11-21T09:33:32.262Z,5.38
2022-11-21T09:35:59.227Z,5.57
2022-11-21T09:38:26.852Z,4.90
2022-11-21T09:40:58.420Z,5.00
2022-11-21T09:43:49.678Z,5.10
2022-11-21T09:46:23.479Z,5.28
2022-11-21T09:48:58.435Z,4.72
2022-11-21T09:51:26.116Z,4.93
2022-11-21T09:53:58.728Z,4.95
2022-11-21T09:56:26.713Z,5.13
2022-11-21T09:59:16.243Z,5.05
2022-11-21T10:01:42.680Z,4.70
2022-11-21T10:04:09.183Z,5.13
2022-11-21T10:06:45.407Z,5.03
2022-11-21T10:09:17.869Z,4.95
2022-11-21T10:14:49.546Z,4.28
2022-11-21T10:17:31.981Z,4.13
2022-11-21T10:20:21.413Z,4.75
2022-11-21T10:22:54.753Z,4.43
2022-11-21T10:25:27.158Z,4.93
2022-11-21T10:28:00.860Z,4.35
2022-11-21T10:30:27.225Z,3.85
2022-11-21T10:32:56.557Z,4.28
2022-11-21T10:35:25.260Z,4.00
2022-11-21T10:38:02.350Z,4.43
2022-11-21T10:40:45.653Z,3.88
2022-11-21T10:43:49.340Z,4.35
2022-11-21T10:46:15.769Z,4.13
2022-11-21T10:48:42.185Z,4.25
2022-11-21T10:51:27.357Z,4.20
2022-11-21T10:54:22.776Z,3.90
2022-11-21T10:56:49.842Z,4.18
2022-11-21T10:59:28.635Z,3.80
2022-11-21T11:02:20.883Z,3.70
2022-11-21T11:04:52.084Z,4.00
2022-11-21T11:07:26.535Z,4.15
2022-11-21T11:09:53.444Z,3.53
2022-11-21T11:12:25.876Z,4.00
2022-11-21T11:17:26.432Z,3.15
2022-11-21T11:20:03.272Z,3.67
2022-11-21T11:22:30.450Z,3.72
2022-11-21T11:25:00.471Z,3.85
2022-11-21T11:27:28.831Z,3.60
2022-11-21T11:29:55.398Z,3.83
2022-11-21T11:32:22.483Z,3.70
2022-11-21T11:35:00.307Z,3.28
2022-11-21T11:37:43.186Z,3.58
2022-11-21T11:40:15.716Z,3.67
2022-11-21T11:43:13.308Z,4.18
2022-11-21T11:46:18.313Z,3.90
2022-11-21T11:49:11.394Z,4.13
2022-11-21T11:51:36.800Z,5.70
2022-11-21T11:54:07.447Z,5.22
2022-11-21T11:56:37.153Z,5.60
2022-11-21T11:59:09.647Z,4.43
2022-11-21T12:04:07.021Z,4.13
2022-11-21T12:07:26.061Z,3.58
2022-11-21T12:09:24.649Z,3.83
2022-11-21T12:12:20.449Z,3.60
2022-11-21T12:15:31.198Z,3.63
2022-11-21T12:18:16.361Z,3.08
2022-11-21T12:21:01.644Z,3.00
2022-11-21T12:23:32.672Z,3.33
2022-11-21T12:26:18.070Z,3.17
2022-11-21T12:29:03.273Z,3.20
2022-11-21T12:31:38.772Z,2.97
2022-11-21T12:34:20.415Z,3.30
2022-11-21T12:37:05.510Z,2.78
2022-11-21T12:39:53.244Z,2.47
2022-11-21T12:42:38.403Z,3.10
2022-11-21T12:45:10.567Z,3.13
2022-11-21T12:48:13.906Z,2.60
2022-11-21T12:50:59.654Z,2.42
2022-11-21T12:53:59.859Z,2.63
2022-11-21T12:56:38.539Z,2.72
2022-11-21T12:59:05.331Z,2.90
2022-11-21T13:01:39.141Z,2.65
2022-11-21T13:04:25.822Z,3.00
2022-11-21T13:06:54.267Z,2.83
2022-11-21T13:09:22.088Z,3.00
2022-11-21T13:12:04.598Z,2.97
2022-11-21T13:14:46.073Z,2.72
2022-11-21T13:17:21.626Z,2.90
2022-11-21T13:19:51.038Z,2.72
2022-11-21T13:22:35.833Z,2.78
2022-11-21T13:25:04.640Z,2.97
2022-11-21T13:27:36.564Z,2.70
2022-11-21T13:30:07.617Z,2.50
2022-11-21T13:32:41.440Z,2.45
2022-11-21T13:35:20.139Z,2.70
2022-11-21T13:37:49.604Z,2.60
2022-11-21T13:40:28.772Z,2.40
2022-11-21T13:46:00.940Z,2.95
2022-11-21T13:48:36.780Z,3.08
2022-11-21T13:51:10.176Z,2.75
2022-11-21T13:53:36.557Z,2.85
2022-11-21T13:56:23.229Z,2.45
2022-11-21T13:58:57.891Z,2.38
2022-11-21T14:01:39.925Z,2.88
2022-11-21T14:04:17.519Z,2.55
2022-11-21T14:06:44.376Z,3.03
2022-11-21T14:09:14.167Z,2.90
2022-11-21T14:11:49.921Z,2.63
2022-11-21T14:14:25.818Z,2.55
2022-11-21T14:16:58.049Z,2.70
2022-11-21T14:19:25.040Z,2.70
2022-11-21T14:21:51.594Z,2.40
2022-11-21T14:24:19.592Z,3.08
2022-11-21T14:26:47.979Z,2.70
2022-11-21T14:29:28.622Z,2.67
2022-11-21T14:31:55.858Z,2.92
2022-11-21T14:34:28.288Z,3.08
2022-11-21T14:36:55.442Z,2.70
2022-11-21T14:39:43.942Z,2.67
2022-11-21T14:42:15.830Z,2.80
2022-11-21T14:44:42.791Z,2.50
2022-11-21T14:47:25.269Z,2.53
2022-11-21T14:49:53.516Z,2.72
2022-11-21T14:52:23.104Z,3.17
2022-11-21T14:55:22.348Z,2.95
2022-11-21T14:57:40.652Z,3.20
2022-11-21T15:00:07.345Z,2.90
2022-11-21T15:02:34.276Z,3.00
2022-11-21T15:05:02.087Z,3.20
2022-11-21T15:07:34.697Z,3.33
2022-11-21T15:12:48.151Z,3.35
2022-11-21T15:15:33.281Z,3.05
2022-11-21T15:18:26.491Z,3.30
2022-11-21T15:20:48.470Z,3.35
2022-11-21T15:23:31.909Z,3.30
2022-11-21T15:28:53.999Z,3.13
2022-11-21T15:31:21.511Z,3.33
2022-11-21T15:37:12.280Z,3.35
2022-11-21T15:39:42.839Z,3.50
2022-11-21T15:42:27.971Z,3.70
2022-11-21T15:44:58.740Z,3.47
2022-11-21T15:47:25.232Z,3.50
2022-11-21T15:49:52.602Z,3.80
2022-11-21T15:52:19.040Z,3.97
2022-11-21T15:54:45.526Z,3.90
2022-11-21T15:57:12.203Z,4.05
2022-11-21T15:57:13.217Z,3.20
2022-11-21T15:59:38.786Z,4.50
2022-11-21T16:02:05.712Z,4.35
2022-11-21T16:04:32.085Z,4.30
2022-11-21T16:06:58.549Z,4.50
2022-11-21T16:09:25.241Z,4.20
2022-11-21T16:11:51.883Z,4.47
2022-11-21T16:14:18.483Z,4.05
2022-11-21T16:16:45.357Z,4.00
2022-11-21T16:19:12.580Z,4.13
2022-11-21T16:21:39.291Z,4.40
2022-11-21T16:24:05.989Z,4.55
2022-11-21T16:26:33.470Z,3.85
2022-11-21T16:29:01.007Z,4.45
2022-11-21T16:31:30.816Z,4.20
2022-11-21T16:33:58.163Z,4.50
2022-11-21T16:36:26.839Z,3.83
2022-11-21T16:38:53.640Z,3.78
2022-11-21T16:41:21.640Z,4.43
2022-11-21T16:43:49.848Z,4.65
2022-11-21T16:46:16.770Z,4.50
2022-11-21T16:48:43.391Z,4.07
2022-11-21T16:51:17.047Z,4.03
2022-11-21T16:53:43.970Z,4.03
2022-11-21T16:56:11.078Z,4.10
2022-11-21T16:58:38.801Z,4.15
2022-11-21T17:01:21.935Z,3.72
2022-11-21T17:03:49.017Z,3.65
2022-11-21T17:06:18.521Z,3.88
2022-11-21T17:08:44.943Z,4.13
2022-11-21T17:11:24.141Z,3.60
2022-11-21T17:13:51.302Z,4.40
2022-11-21T17:16:18.781Z,3.95
2022-11-21T17:18:45.329Z,3.80
2022-11-21T17:21:13.226Z,4.45
2022-11-21T17:23:40.827Z,4.00
2022-11-21T17:26:11.597Z,3.92
2022-11-21T17:28:43.847Z,4.13
2022-11-21T17:31:13.148Z,4.05
2022-11-21T17:33:39.904Z,3.53
2022-11-21T17:36:07.610Z,3.70
2022-11-21T17:38:34.040Z,4.03
2022-11-21T17:41:20.672Z,4.05
2022-11-21T17:43:48.372Z,3.95
2022-11-21T17:46:16.885Z,3.78
2022-11-21T17:48:43.890Z,3.70
2022-11-21T17:51:14.408Z,4.05
2022-11-21T17:53:42.029Z,4.03
2022-11-21T17:56:10.496Z,3.97
2022-11-21T17:58:37.439Z,3.78
2022-11-21T18:01:05.002Z,3.30
2022-11-21T18:03:31.876Z,4.00
2022-11-21T18:06:02.712Z,4.20
2022-11-21T18:08:33.315Z,4.07
2022-11-21T18:10:59.799Z,3.80
2022-11-21T18:13:26.957Z,3.72
2022-11-21T18:15:53.480Z,3.60
2022-11-21T18:18:20.172Z,4.00
2022-11-21T18:20:46.945Z,3.58
2022-11-21T18:23:13.355Z,4.00
2022-11-21T18:25:39.914Z,3.88
2022-11-21T18:28:06.397Z,3.85
2022-11-21T18:30:33.165Z,3.85
2022-11-21T18:32:59.983Z,4.10
2022-11-21T18:35:27.425Z,4.07
2022-11-21T18:37:55.536Z,3.85
2022-11-21T18:40:22.091Z,4.13
2022-11-21T18:42:48.489Z,4.28
2022-11-21T18:45:15.040Z,3.80
2022-11-21T18:47:41.815Z,4.10
2022-11-21T18:50:08.410Z,3.97
2022-11-21T18:52:35.935Z,4.15
2022-11-21T18:55:02.505Z,3.75
2022-11-21T18:57:28.978Z,4.32
2022-11-21T18:59:55.338Z,4.10
2022-11-21T19:02:21.755Z,4.28
2022-11-21T19:04:48.155Z,4.00
2022-11-21T19:07:14.572Z,3.95
2022-11-21T19:09:41.669Z,4.03
2022-11-21T19:12:08.074Z,4.05
2022-11-21T19:14:34.560Z,3.80
2022-11-21T19:17:00.937Z,4.32
2022-11-21T19:19:36.485Z,4.25
2022-11-21T19:22:04.777Z,4.70
2022-11-21T19:24:31.368Z,4.25
2022-11-21T19:26:57.820Z,4.40
2022-11-21T19:29:24.233Z,3.92
2022-11-21T19:31:50.671Z,4.25
2022-11-21T19:34:17.108Z,4.15
2022-11-21T19:36:44.228Z,4.15
2022-11-21T19:39:10.951Z,4.15
2022-11-21T19:41:37.550Z,4.93
2022-11-21T19:44:04.079Z,4.28
2022-11-21T19:46:32.205Z,4.40
2022-11-21T19:48:58.988Z,4.25
2022-11-21T19:51:29.397Z,3.83
2022-11-21T19:53:55.834Z,4.30
2022-11-21T19:56:23.568Z,4.13
2022-11-21T19:58:50.379Z,4.10
2022-11-21T20:01:21.575Z,4.05
2022-11-21T20:03:48.779Z,3.90
2022-11-21T20:06:22.350Z,3.75
2022-11-21T20:08:54.071Z,4.03
2022-11-21T20:11:21.575Z,4.15
2022-11-21T20:13:48.760Z,4.50
2022-11-21T20:16:18.767Z,4.05
2022-11-21T20:18:45.519Z,4.57
2022-11-21T20:21:12.466Z,4.03
2022-11-21T20:23:39.770Z,4.07
2022-11-21T20:26:06.645Z,4.32
2022-11-21T20:28:34.125Z,4.03
2022-11-21T20:31:07.240Z,4.43
2022-11-21T20:33:34.302Z,4.10
2022-11-21T20:36:05.365Z,3.92
2022-11-21T20:38:31.991Z,3.80
2022-11-21T20:40:58.521Z,4.10
2022-11-21T20:43:38.016Z,4.18
2022-11-21T20:46:15.651Z,4.47
2022-11-21T20:48:46.607Z,4.05
2022-11-21T20:54:03.387Z,4.10
2022-11-21T20:56:34.671Z,3.67
2022-11-21T20:59:01.441Z,4.50
2022-11-21T21:01:28.617Z,3.97
2022-11-21T21:03:55.344Z,4.50
2022-11-21T21:06:24.072Z,4.28
2022-11-21T21:08:51.053Z,4.60
2022-11-21T21:11:44.510Z,4.05
2022-11-21T21:14:04.734Z,4.60
2022-11-21T21:16:34.363Z,4.75
2022-11-21T21:19:00.871Z,4.63
2022-11-21T21:21:28.697Z,4.53
2022-11-21T21:24:00.188Z,4.47
2022-11-21T21:26:41.863Z,4.93
2022-11-21T21:31:35.627Z,5.13
2022-11-21T21:34:02.659Z,4.55
2022-11-21T21:36:30.331Z,5.18
2022-11-21T21:38:58.006Z,5.45
2022-11-21T21:41:25.728Z,5.35
2022-11-21T21:43:53.191Z,5.78
2022-11-21T21:46:21.174Z,5.30
2022-11-21T21:48:47.705Z,5.88
2022-11-21T21:51:21.453Z,5.47
2022-11-21T21:53:48.542Z,5.50
2022-11-21T21:56:15.858Z,6.35
2022-11-21T21:58:43.308Z,6.00
2022-11-21T22:01:16.997Z,5.68
2022-11-21T22:03:43.846Z,6.20
2022-11-21T22:06:11.205Z,5.80
2022-11-21T22:08:38.495Z,6.15
2022-11-21T22:11:08.276Z,6.60
2022-11-21T22:13:35.407Z,6.38
2022-11-21T22:16:03.063Z,6.32
2022-11-21T22:18:29.648Z,6.32
2022-11-21T22:20:56.149Z,6.38
2022-11-21T22:23:22.842Z,6.30
2022-11-21T22:25:49.604Z,6.53
2022-11-21T22:28:16.079Z,6.28
2022-11-21T22:30:42.550Z,6.25
2022-11-21T22:33:09.206Z,6.53
2022-11-21T22:35:35.682Z,6.90
2022-11-21T22:38:02.374Z,5.95
2022-11-21T22:40:28.838Z,6.07
2022-11-21T22:42:55.313Z,6.57
2022-11-21T22:45:21.720Z,6.45
2022-11-21T22:47:48.386Z,6.15
2022-11-21T22:50:15.605Z,6.00
2022-11-21T22:52:42.147Z,6.28
2022-11-21T22:55:08.844Z,6.10
2022-11-21T22:57:35.323Z,6.25
2022-11-21T23:00:02.341Z,6.30
2022-11-21T23:02:28.823Z,5.78
2022-11-21T23:04:55.259Z,6.18
2022-11-21T23:07:21.789Z,6.97
2022-11-21T23:09:48.266Z,6.00
2022-11-21T23:12:14.937Z,5.97
2022-11-21T23:14:41.341Z,6.13
2022-11-21T23:17:07.742Z,5.63
2022-11-21T23:19:34.207Z,6.10
2022-11-21T23:22:00.708Z,6.03
2022-11-21T23:24:27.336Z,5.63
2022-11-21T23:26:53.776Z,5.97
2022-11-21T23:29:20.481Z,5.93
2022-11-21T23:31:46.980Z,5.72
2022-11-21T23:34:13.485Z,6.45
2022-11-21T23:36:41.069Z,5.97
2022-11-21T23:39:07.787Z,6.07
2022-11-21T23:41:34.544Z,6.07
2022-11-21T23:44:03.388Z,5.55
2022-11-21T23:46:30.239Z,6.30
2022-11-21T23:48:56.621Z,5.57
2022-11-21T23:51:23.161Z,6.47
2022-11-21T23:53:49.949Z,5.18
2022-11-21T23:56:16.668Z,6.13
2022-11-21T23:58:43.136Z,5.60
